Time;durP1;ratioP1;P1;durP2;ratioP2;P2;SDS_P1;SDS_P2;PMS_P1;PMS_P2;Temp;Humidity;BMP_temperature;BMP_pressure;BME280_temperature;BME280_humidity;BME280_pressure;Samples;Min_cycle;Max_cycle;Signal;HPM_P1;HPM_P2
2023/04/22 00:00:12;;;;;;;21.50;9.90;;;;;;;6.69;51.92;98962.40;104771;1256;98873;-74
2023/04/22 00:03:07;;;;;;;23.50;10.10;;;;;;;6.67;52.00;98966.90;104679;1278;99170;-74
2023/04/22 00:05:36;;;;;;;21.30;9.20;;;;;;;6.67;52.07;98962.19;104939;1260;111338;-75
2023/04/22 00:08:05;;;;;;;23.40;10.30;;;;;;;6.64;52.20;98958.29;104953;1261;102484;-74
2023/04/22 00:10:33;;;;;;;23.00;9.30;;;;;;;6.64;52.02;98961.79;104957;1261;107621;-74
2023/04/22 00:13:02;;;;;;;22.00;9.30;;;;;;;6.60;52.08;98959.92;104955;1259;98037;-76
2023/04/22 00:15:33;;;;;;;20.50;9.20;;;;;;;6.56;52.12;98960.85;104816;1264;99316;-76
2023/04/22 00:18:02;;;;;;;20.70;9.80;;;;;;;6.51;52.17;98959.89;104787;1269;111070;-76
2023/04/22 00:20:31;;;;;;;21.80;10.20;;;;;;;6.52;52.37;98958.06;104915;1268;102039;-74
2023/04/22 00:22:59;;;;;;;24.10;9.90;;;;;;;6.53;52.29;98960.30;104849;1262;107636;-75
2023/04/22 00:25:27;;;;;;;23.70;10.20;;;;;;;6.50;52.18;98960.14;104874;1271;97995;-76
2023/04/22 00:27:56;;;;;;;27.40;11.40;;;;;;;6.41;52.20;98963.29;104952;1259;99807;-75
2023/04/22 00:30:24;;;;;;;26.70;11.70;;;;;;;6.32;52.32;98964.89;105109;1259;110861;-74
2023/04/22 00:32:52;;;;;;;27.00;11.30;;;;;;;6.25;52.47;98964.91;105274;1259;102088;-75
2023/04/22 00:35:21;;;;;;;24.10;12.10;;;;;;;6.20;52.57;98963.92;104841;1256;107714;-75
2023/04/22 00:37:49;;;;;;;28.30;13.00;;;;;;;6.16;52.55;98965.20;104656;1256;99587;-76
2023/04/22 00:40:16;;;;;;;26.60;13.40;;;;;;;6.20;52.56;98964.13;104946;1258;97867;-80
2023/04/22 00:42:48;;;;;;;27.60;13.40;;;;;;;6.22;52.53;98960.16;105009;1260;110874;-76
2023/04/22 00:45:18;;;;;;;27.50;13.10;;;;;;;6.21;52.62;98961.60;105087;1260;104228;-76
2023/04/22 00:47:47;;;;;;;25.00;12.30;;;;;;;6.19;52.71;98964.15;104947;1256;106732;-75
2023/04/22 00:50:16;;;;;;;34.50;15.90;;;;;;;6.17;52.68;98962.50;104823;1263;98087;-76
2023/04/22 00:52:44;;;;;;;34.70;18.00;;;;;;;6.16;52.64;98962.58;105029;1259;97947;-75
2023/04/22 00:55:12;;;;;;;34.80;16.40;;;;;;;6.12;52.57;98959.44;104928;1261;111173;-75
2023/04/22 00:57:41;;;;;;;31.60;15.60;;;;;;;6.09;52.82;98962.07;104941;1261;102650;-75
2023/04/22 01:00:10;;;;;;;33.90;15.00;;;;;;;6.06;52.74;98961.92;104853;1272;107625;-75
2023/04/22 01:02:39;;;;;;;31.90;15.20;;;;;;;6.03;52.78;98961.21;104856;1256;99238;-75
2023/04/22 01:05:10;;;;;;;34.10;16.60;;;;;;;5.99;52.85;98962.09;104911;1264;99799;-75
2023/04/22 01:07:38;;;;;;;30.20;14.60;;;;;;;5.91;52.94;98959.36;104816;1261;110860;-76
2023/04/22 01:10:07;;;;;;;34.90;16.70;;;;;;;5.86;53.15;98958.95;105014;1258;100100;-75
2023/04/22 01:12:35;;;;;;;36.00;15.40;;;;;;;5.85;53.18;98960.41;104852;1273;108217;-78
2023/04/22 01:15:06;;;;;;;32.40;15.20;;;;;;;5.83;53.20;98961.20;104694;1256;99346;-76
2023/04/22 01:17:35;;;;;;;30.30;14.30;;;;;;;5.83;53.34;98956.96;104714;1264;99306;-76
2023/04/22 01:20:04;;;;;;;30.40;14.30;;;;;;;5.83;53.16;98956.10;104879;1262;111589;-80
2023/04/22 01:22:39;;;;;;;32.50;14.90;;;;;;;5.81;53.18;98958.48;104894;1261;103113;-76
2023/04/22 01:25:10;;;;;;;32.60;13.80;;;;;;;5.76;53.47;98961.35;104740;1263;107183;-76
2023/04/22 01:27:39;;;;;;;32.80;13.50;;;;;;;5.70;53.38;98967.02;104903;1261;97997;-75
2023/04/22 01:30:11;;;;;;;32.30;15.10;;;;;;;5.63;53.46;98963.67;104867;1256;98458;-76
2023/04/22 01:32:40;;;;;;;34.90;14.60;;;;;;;5.62;53.51;98962.33;104862;1261;110202;-81
2023/04/22 01:35:09;;;;;;;30.90;13.50;;;;;;;5.62;53.43;98961.96;105006;1260;102014;-76
2023/04/22 01:37:38;;;;;;;28.70;13.60;;;;;;;5.62;53.65;98962.16;104815;1256;107613;-75
2023/04/22 01:40:09;;;;;;;32.70;14.40;;;;;;;5.60;53.49;98964.15;104687;1261;99308;-75
2023/04/22 01:42:38;;;;;;;28.40;13.00;;;;;;;5.56;53.53;98966.34;104821;1260;98651;-76
2023/04/22 01:45:06;;;;;;;28.80;13.30;;;;;;;5.51;53.75;98965.36;104825;1260;111422;-79
2023/04/22 01:47:34;;;;;;;30.60;13.30;;;;;;;5.46;53.65;98964.55;104765;1256;102352;-75
2023/04/22 01:50:03;;;;;;;34.40;14.10;;;;;;;5.43;53.76;98961.39;104597;1261;107098;-75
2023/04/22 01:52:31;;;;;;;32.20;14.70;;;;;;;5.40;53.78;98963.15;104815;1260;98038;-75
2023/04/22 01:55:01;;;;;;;33.50;14.20;;;;;;;5.33;53.88;98964.01;104862;1261;98562;-75
2023/04/22 01:57:29;;;;;;;29.70;13.40;;;;;;;5.27;53.91;98968.44;104750;1256;110899;-76
2023/04/22 01:59:57;;;;;;;30.40;14.70;;;;;;;5.27;54.05;98967.16;104783;1261;102267;-75
2023/04/22 02:02:26;;;;;;;31.80;13.70;;;;;;;5.32;53.95;98966.88;104990;1260;107654;-75
2023/04/22 02:04:54;;;;;;;29.30;13.50;;;;;;;5.34;53.97;98967.33;104801;1261;98060;-75
2023/04/22 02:07:22;;;;;;;33.30;15.00;;;;;;;5.33;54.06;98965.09;104952;1258;98547;-75
2023/04/22 02:09:51;;;;;;;29.30;14.00;;;;;;;5.31;53.98;98965.89;104721;1261;111826;-79
2023/04/22 02:12:18;;;;;;;29.60;13.00;;;;;;;5.29;54.21;98963.36;104848;1262;101535;-77
2023/04/22 02:14:49;;;;;;;34.90;14.20;;;;;;;5.21;54.13;98966.05;104788;1265;108374;-75
2023/04/22 02:17:18;;;;;;;29.70;14.30;;;;;;;5.13;54.21;98961.54;104777;1261;98176;-75
2023/04/22 02:19:46;;;;;;;30.40;14.70;;;;;;;5.08;54.27;98962.70;105146;1256;99350;-78
2023/04/22 02:22:15;;;;;;;33.90;14.90;;;;;;;5.09;54.09;98966.32;105087;1255;111114;-76
2023/04/22 02:24:44;;;;;;;31.10;13.50;;;;;;;5.09;54.31;98968.42;104764;1261;102558;-75
2023/04/22 02:27:12;;;;;;;29.60;13.20;;;;;;;5.03;54.45;98966.44;104926;1257;108445;-76
2023/04/22 02:29:40;;;;;;;33.50;15.00;;;;;;;4.99;54.39;98963.88;104856;1263;98070;-75
2023/04/22 02:32:09;;;;;;;30.20;13.60;;;;;;;4.92;54.38;98964.39;104821;1258;98525;-76
2023/04/22 02:34:37;;;;;;;30.50;15.80;;;;;;;4.87;54.50;98962.35;104866;1260;111387;-74
2023/04/22 02:37:05;;;;;;;33.20;14.80;;;;;;;4.84;54.50;98962.14;104892;1262;101919;-74
2023/04/22 02:39:33;;;;;;;30.40;13.70;;;;;;;4.79;54.59;98963.80;105114;1261;107639;-77
2023/04/22 02:42:02;;;;;;;32.90;14.50;;;;;;;4.77;54.63;98963.73;104979;1262;98061;-75
2023/04/22 02:44:29;;;;;;;29.80;14.10;;;;;;;4.74;54.61;98963.88;105056;1256;98476;-75
2023/04/22 02:46:58;;;;;;;30.50;13.40;;;;;;;4.75;54.77;98962.58;105107;1260;111189;-75
2023/04/22 02:49:26;;;;;;;30.60;14.50;;;;;;;4.74;54.70;98962.66;105109;1259;102080;-76
2023/04/22 02:51:56;;;;;;;29.90;14.70;;;;;;;4.70;54.79;98964.77;104874;1261;108397;-75
2023/04/22 02:54:24;;;;;;;31.40;14.00;;;;;;;4.71;54.92;98963.35;104890;1272;98032;-75
2023/04/22 02:56:52;;;;;;;30.00;13.90;;;;;;;4.67;54.90;98961.45;104929;1256;98578;-76
2023/04/22 02:59:21;;;;;;;32.60;14.70;;;;;;;4.66;55.11;98960.94;105197;1260;111290;-75
2023/04/22 03:01:49;;;;;;;32.30;14.90;;;;;;;4.69;55.10;98965.20;105040;1261;102333;-75
2023/04/22 03:04:20;;;;;;;39.00;18.10;;;;;;;4.75;55.25;98966.30;105163;1258;107517;-74
2023/04/22 03:06:49;;;;;;;31.80;15.30;;;;;;;4.79;55.01;98969.08;105214;1260;97945;-76
2023/04/22 03:09:17;;;;;;;30.10;14.20;;;;;;;4.79;55.09;98964.67;104790;1259;98373;-76
2023/04/22 03:11:45;;;;;;;29.10;14.40;;;;;;;4.79;55.13;98965.56;104942;1261;110875;-75
2023/04/22 03:14:13;;;;;;;30.30;13.50;;;;;;;4.77;55.20;98970.59;104967;1261;101877;-75
2023/04/22 03:16:41;;;;;;;28.90;13.40;;;;;;;4.67;55.16;98971.42;105041;1261;177747;-81
2023/04/22 03:19:09;;;;;;;25.40;12.70;;;;;;;4.62;55.27;98974.15;104843;1258;99344;-79
2023/04/22 03:21:37;;;;;;;29.50;13.40;;;;;;;4.63;55.26;98975.14;104991;1264;98410;-74
2023/04/22 03:24:05;;;;;;;26.10;13.70;;;;;;;4.62;55.36;98974.13;105134;1258;111254;-74
2023/04/22 03:26:33;;;;;;;31.50;14.60;;;;;;;4.63;55.38;98976.90;105166;1260;102225;-78
2023/04/22 03:29:02;;;;;;;27.30;13.60;;;;;;;4.68;55.38;98980.50;104590;1277;107142;-74
2023/04/22 03:31:30;;;;;;;26.90;13.90;;;;;;;4.72;55.46;98980.50;104944;1261;99233;-74
2023/04/22 03:33:58;;;;;;;28.60;14.90;;;;;;;4.73;55.65;98985.03;105201;1256;99215;-75
2023/04/22 03:36:32;;;;;;;28.00;14.90;;;;;;;4.73;55.46;98986.23;105268;1258;111261;-75
2023/04/22 03:39:00;;;;;;;28.60;14.10;;;;;;;4.73;55.58;98985.67;104769;1258;102273;-76
2023/04/22 03:41:28;;;;;;;27.00;13.20;;;;;;;4.78;55.56;98984.96;104902;1262;108441;-76
2023/04/22 03:43:56;;;;;;;28.70;14.10;;;;;;;4.76;55.65;98989.25;104701;1256;99285;-75
2023/04/22 03:46:28;;;;;;;27.00;13.90;;;;;;;4.76;55.71;98989.23;105052;1256;98787;-76
2023/04/22 03:48:56;;;;;;;28.00;13.80;;;;;;;4.81;55.73;98991.48;104735;1263;111285;-75
2023/04/22 03:51:24;;;;;;;29.50;14.20;;;;;;;4.81;55.73;98987.98;104847;1259;102230;-75
2023/04/22 03:53:52;;;;;;;31.20;16.20;;;;;;;4.82;55.60;98989.48;105083;1262;107149;-75
2023/04/22 03:56:20;;;;;;;30.90;17.60;;;;;;;4.88;55.80;98991.27;104547;1264;97993;-74
2023/04/22 03:58:51;;;;;;;33.70;16.90;;;;;;;4.95;55.90;98993.05;104869;1254;99064;-74
2023/04/22 04:01:19;;;;;;;31.50;15.50;;;;;;;5.01;56.03;98993.80;104948;1258;110879;-74
2023/04/22 04:03:47;;;;;;;30.20;15.80;;;;;;;5.04;56.04;98995.42;104838;1258;102564;-74
2023/04/22 04:06:16;;;;;;;31.30;15.90;;;;;;;5.05;55.89;98996.92;104932;1262;107093;-74
2023/04/22 04:08:45;;;;;;;28.30;15.40;;;;;;;5.09;55.96;98999.36;104976;1256;99243;-76
2023/04/22 04:11:13;;;;;;;27.30;14.20;;;;;;;5.14;56.11;98996.45;104974;1258;99258;-75
2023/04/22 04:13:41;;;;;;;28.30;14.00;;;;;;;5.16;56.13;99000.61;105139;1258;111252;-75
2023/04/22 04:16:09;;;;;;;26.90;13.30;;;;;;;5.15;56.07;99001.02;104774;1258;101962;-75
2023/04/22 04:18:37;;;;;;;32.20;15.10;;;;;;;5.16;56.11;98998.83;104902;1262;107752;-74
2023/04/22 04:21:05;;;;;;;25.50;13.80;;;;;;;5.18;56.19;98998.90;104912;1261;98116;-74
2023/04/22 04:23:33;;;;;;;27.00;13.00;;;;;;;5.23;56.34;99001.84;104945;1259;99797;-75
2023/04/22 04:26:01;;;;;;;25.80;13.70;;;;;;;5.28;56.27;99004.23;105087;1256;110579;-75
2023/04/22 04:28:31;;;;;;;26.20;12.60;;;;;;;5.30;56.40;99004.33;104999;1260;102214;-76
2023/04/22 04:31:01;;;;;;;26.10;12.50;;;;;;;5.31;56.52;99007.55;104849;1259;107769;-76
2023/04/22 04:33:31;;;;;;;24.10;12.30;;;;;;;5.32;56.48;99011.71;104907;1262;98035;-75
2023/04/22 04:35:59;;;;;;;26.00;14.00;;;;;;;5.36;56.78;99011.16;105088;1255;98472;-74
2023/04/22 04:38:27;;;;;;;25.50;13.70;;;;;;;5.41;56.74;99011.27;104774;1256;110889;-74
2023/04/22 04:40:55;;;;;;;31.70;13.10;;;;;;;5.44;56.88;99015.32;105164;1259;102053;-74
2023/04/22 04:43:24;;;;;;;24.40;12.70;;;;;;;5.48;56.76;99014.92;105103;1257;107249;-76
2023/04/22 04:45:53;;;;;;;24.80;12.60;;;;;;;5.54;56.87;99017.09;105183;1255;97942;-75
2023/04/22 04:48:23;;;;;;;26.00;13.50;;;;;;;5.62;56.92;99015.11;105179;1260;98370;-75
2023/04/22 04:50:53;;;;;;;27.70;13.50;;;;;;;5.73;57.14;99019.66;104960;1261;110994;-76
2023/04/22 04:53:21;;;;;;;28.10;14.50;;;;;;;5.82;57.21;99019.84;104964;1261;102905;-82
2023/04/22 04:55:52;;;;;;;27.00;14.30;;;;;;;5.92;57.16;99020.00;105119;1255;107642;-75
2023/04/22 04:58:21;;;;;;;26.50;14.10;;;;;;;6.03;57.14;99021.20;105002;1261;98022;-75
2023/04/22 05:00:50;;;;;;;27.90;14.40;;;;;;;6.15;57.12;99019.16;104811;1256;99146;-75
2023/04/22 05:03:18;;;;;;;32.50;15.60;;;;;;;6.27;57.16;99015.69;105038;1261;111919;-74
2023/04/22 05:05:47;;;;;;;29.70;14.90;;;;;;;6.39;57.43;99018.73;104927;1263;102237;-81
2023/04/22 05:08:15;;;;;;;32.40;16.50;;;;;;;6.52;57.48;99017.44;105044;1260;107608;-82
2023/04/22 05:10:44;;;;;;;30.40;15.80;;;;;;;6.66;57.33;99018.06;105257;1261;98114;-76
2023/04/22 05:13:12;;;;;;;31.20;16.00;;;;;;;6.79;57.28;99017.82;104711;1261;98358;-75
2023/04/22 05:15:40;;;;;;;35.90;16.60;;;;;;;6.94;57.49;99023.50;105025;1259;111402;-74
2023/04/22 05:18:08;;;;;;;31.10;17.20;;;;;;;7.08;57.39;99029.58;104986;1261;102354;-74
2023/04/22 05:20:36;;;;;;;30.50;16.80;;;;;;;7.21;57.62;99030.58;104783;1256;107672;-73
2023/04/22 05:23:04;;;;;;;34.40;17.00;;;;;;;7.30;57.35;99029.52;104598;1274;99265;-75
2023/04/22 05:25:32;;;;;;;29.80;15.90;;;;;;;7.38;57.40;99034.54;105046;1261;98540;-74
2023/04/22 05:28:01;;;;;;;30.00;15.50;;;;;;;7.46;57.43;99035.79;104934;1261;109894;-73
2023/04/22 05:30:29;;;;;;;32.10;16.50;;;;;;;7.58;57.62;99036.86;105278;1256;101916;-74
2023/04/22 05:32:56;;;;;;;30.20;15.20;;;;;;;7.70;57.49;99042.51;105115;1271;107525;-81
2023/04/22 05:35:25;;;;;;;26.70;13.90;;;;;;;7.81;57.50;99039.87;104922;1256;97995;-74
2023/04/22 05:37:52;;;;;;;30.50;15.90;;;;;;;7.93;57.53;99039.48;104922;1260;98351;-74
2023/04/22 05:40:26;;;;;;;30.00;15.80;;;;;;;8.01;57.59;99038.44;108215;1255;110717;-74
2023/04/22 05:42:56;;;;;;;29.40;15.20;;;;;;;8.09;57.61;99037.64;105655;1256;102161;-76
2023/04/22 05:45:24;;;;;;;29.30;15.40;;;;;;;8.16;57.59;99037.70;105099;1261;107274;-74
2023/04/22 05:47:52;;;;;;;27.70;15.60;;;;;;;8.23;57.56;99040.27;105242;1258;99245;-75
2023/04/22 05:50:21;;;;;;;28.10;16.10;;;;;;;8.32;57.53;99039.34;108404;1257;95668;-74
2023/04/22 05:52:50;;;;;;;29.20;15.40;;;;;;;8.42;57.53;99035.52;108277;1255;111222;-75
2023/04/22 05:55:18;;;;;;;30.70;15.70;;;;;;;8.48;57.56;99037.48;108252;1256;102721;-75
2023/04/22 05:57:46;;;;;;;28.70;16.00;;;;;;;8.53;57.58;99037.17;108289;1256;107473;-75
2023/04/22 06:00:17;;;;;;;29.80;16.30;;;;;;;8.60;57.64;99040.23;108361;1255;95926;-75
2023/04/22 06:02:45;;;;;;;30.40;16.80;;;;;;;8.69;57.67;99037.77;107825;1258;96096;-74
2023/04/22 06:05:13;;;;;;;33.00;17.30;;;;;;;8.77;57.67;99042.33;104907;1259;109908;-75
2023/04/22 06:07:45;;;;;;;29.70;16.30;;;;;;;8.89;57.67;99041.56;105042;1261;101589;-75
2023/04/22 06:10:13;;;;;;;30.70;16.20;;;;;;;9.03;57.76;99041.50;104730;1261;106979;-75
2023/04/22 06:12:41;;;;;;;31.10;16.50;;;;;;;9.15;57.72;99041.78;104875;1264;97951;-82
2023/04/22 06:15:10;;;;;;;34.50;16.20;;;;;;;9.26;57.68;99039.98;104706;1262;98448;-77
2023/04/22 06:17:38;;;;;;;28.80;16.70;;;;;;;9.36;57.77;99040.41;104935;1261;110326;-74
2023/04/22 06:20:07;;;;;;;32.20;17.50;;;;;;;9.42;57.82;99039.84;104891;1262;102802;-75
2023/04/22 06:22:35;;;;;;;32.10;16.60;;;;;;;9.46;57.74;99035.79;105111;1279;107570;-74
2023/04/22 06:25:03;;;;;;;32.50;16.60;;;;;;;9.53;57.73;99040.10;104799;1265;98387;-74
2023/04/22 06:27:34;;;;;;;33.20;17.30;;;;;;;9.64;57.91;99036.89;104916;1262;99157;-75
2023/04/22 06:30:03;;;;;;;33.10;17.70;;;;;;;9.76;57.91;99036.23;105190;1256;110701;-75
2023/04/22 06:32:31;;;;;;;31.10;17.40;;;;;;;9.84;57.87;99036.91;104754;1265;101543;-77
2023/04/22 06:34:59;;;;;;;29.30;16.60;;;;;;;9.94;57.91;99037.27;104578;1264;107342;-76
2023/04/22 06:37:27;;;;;;;31.60;17.10;;;;;;;10.07;57.83;99039.20;104763;1274;98022;-76
2023/04/22 06:39:55;;;;;;;31.10;16.50;;;;;;;10.19;57.77;99043.52;104843;1264;99505;-76
2023/04/22 06:42:24;;;;;;;27.60;15.70;;;;;;;10.29;57.76;99046.55;104903;1264;111323;-76
2023/04/22 06:44:51;;;;;;;31.50;16.10;;;;;;;10.38;57.78;99045.20;105411;1256;101026;-77
2023/04/22 06:47:19;;;;;;;30.40;15.90;;;;;;;10.48;57.74;99041.83;105135;1256;107593;-77
2023/04/22 06:49:49;;;;;;;31.20;15.80;;;;;;;10.60;57.83;99041.27;105153;1260;97933;-77
2023/04/22 06:52:17;;;;;;;28.80;15.60;;;;;;;10.74;57.80;99037.98;108239;1256;95706;-77
2023/04/22 06:54:45;;;;;;;30.60;15.50;;;;;;;10.89;57.83;99039.67;108199;1256;111033;-77
2023/04/22 06:57:14;;;;;;;28.70;14.90;;;;;;;11.04;57.85;99038.28;108217;1256;102952;-76
2023/04/22 06:59:42;;;;;;;30.30;15.50;;;;;;;11.15;57.56;99039.17;108183;1256;107372;-76
2023/04/22 07:02:13;;;;;;;30.40;15.00;;;;;;;11.22;57.64;99037.77;108224;1261;95811;-75
2023/04/22 07:04:41;;;;;;;27.70;14.70;;;;;;;11.31;57.40;99045.80;106403;1262;98464;-76
2023/04/22 07:07:10;;;;;;;29.40;14.30;;;;;;;11.36;57.43;99040.65;105076;1259;111508;-79
2023/04/22 07:09:38;;;;;;;26.20;13.70;;;;;;;11.40;57.41;99038.05;105027;1262;101292;-77
2023/04/22 07:12:07;;;;;;;32.10;15.30;;;;;;;11.45;57.39;99036.42;105383;1261;107612;-75
2023/04/22 07:14:36;;;;;;;25.40;13.90;;;;;;;11.50;57.30;99037.83;105106;1256;98032;-75
2023/04/22 07:17:04;;;;;;;27.20;14.40;;;;;;;11.52;57.36;99040.86;105085;1262;99636;-75
2023/04/22 07:19:32;;;;;;;25.50;14.00;;;;;;;11.55;57.50;99040.45;105181;1261;111303;-75
2023/04/22 07:22:02;;;;;;;26.60;15.10;;;;;;;11.59;57.44;99038.70;104818;1260;104010;-75
2023/04/22 07:24:31;;;;;;;27.10;14.40;;;;;;;11.63;57.38;99040.72;105051;1261;108919;-77
2023/04/22 07:27:01;;;;;;;27.50;14.80;;;;;;;11.67;57.52;99039.89;105274;1256;97855;-80
2023/04/22 07:29:29;;;;;;;27.80;14.20;;;;;;;11.73;57.56;99044.41;105000;1256;99593;-76
2023/04/22 07:31:57;;;;;;;27.30;15.40;;;;;;;11.76;57.48;99045.39;105164;1258;111132;-78
2023/04/22 07:34:25;;;;;;;29.90;15.20;;;;;;;11.78;57.46;99042.59;108128;1256;103406;-77
2023/04/22 07:36:53;;;;;;;29.60;14.30;;;;;;;11.82;57.42;99042.98;108234;1256;107147;-75
2023/04/22 07:39:21;;;;;;;27.70;14.80;;;;;;;11.84;57.31;99039.96;108207;1255;95951;-75
2023/04/22 07:41:50;;;;;;;27.00;13.90;;;;;;;11.89;57.32;99041.40;105799;1261;98470;-76
2023/04/22 07:44:20;;;;;;;25.40;12.80;;;;;;;11.93;57.33;99038.37;105733;1256;111215;-76
2023/04/22 07:46:49;;;;;;;25.00;13.70;;;;;;;12.01;57.27;99038.31;105155;1256;101873;-78
2023/04/22 07:49:18;;;;;;;23.80;12.50;;;;;;;12.07;57.32;99038.39;104944;1260;106369;-76
2023/04/22 07:51:47;;;;;;;26.50;13.00;;;;;;;12.14;57.35;99038.95;104802;1261;99290;-76
2023/04/22 07:54:15;;;;;;;24.40;12.90;;;;;;;12.20;57.33;99039.32;105023;1261;99255;-82
2023/04/22 07:56:43;;;;;;;26.10;13.30;;;;;;;12.25;57.33;99041.38;104632;1256;111378;-74
2023/04/22 07:59:11;;;;;;;26.20;13.70;;;;;;;12.31;57.32;99038.98;104964;1261;102437;-76
2023/04/22 08:01:39;;;;;;;26.40;13.60;;;;;;;12.35;57.26;99040.09;104945;1262;107269;-76
2023/04/22 08:04:07;;;;;;;26.50;13.50;;;;;;;12.36;57.25;99033.61;105005;1263;98041;-76
2023/04/22 08:06:35;;;;;;;26.50;13.20;;;;;;;12.38;57.26;99035.24;104989;1263;98434;-76
2023/04/22 08:09:04;;;;;;;26.40;12.80;;;;;;;12.40;57.42;99036.52;105044;1261;111081;-76
2023/04/22 08:11:32;;;;;;;26.00;12.70;;;;;;;12.43;57.32;99037.87;105000;1261;101974;-76
2023/04/22 08:14:00;;;;;;;24.80;12.30;;;;;;;12.50;57.29;99035.88;104621;1272;107127;-77
2023/04/22 08:16:28;;;;;;;24.30;12.00;;;;;;;12.55;57.16;99034.39;104638;1262;99291;-75
2023/04/22 08:18:56;;;;;;;24.20;11.70;;;;;;;12.59;57.17;99037.96;105007;1262;98441;-75
2023/04/22 08:21:26;;;;;;;21.30;10.00;;;;;;;12.65;57.12;99037.67;106204;1259;110388;-75
2023/04/22 08:23:54;;;;;;;22.10;9.70;;;;;;;12.71;57.05;99037.60;104875;1278;102240;-77
2023/04/22 08:26:22;;;;;;;28.10;10.50;;;;;;;12.77;57.04;99037.27;105004;1261;106686;-77
2023/04/22 08:28:50;;;;;;;25.80;12.10;;;;;;;12.86;56.94;99037.91;105047;1262;97928;-78
2023/04/22 08:31:19;;;;;;;21.90;9.40;;;;;;;12.95;57.00;99041.14;105385;1256;98406;-76
2023/04/22 08:33:47;;;;;;;21.20;9.40;;;;;;;13.02;57.00;99038.77;105017;1261;112332;-74
2023/04/22 08:36:15;;;;;;;20.30;10.30;;;;;;;13.13;56.93;99037.31;108442;1254;102220;-82
2023/04/22 08:38:44;;;;;;;19.20;8.90;;;;;;;13.24;56.93;99037.83;108256;1256;107674;-75
2023/04/22 08:41:18;;;;;;;21.70;9.60;;;;;;;13.34;56.90;99037.69;108220;1261;96015;-77
2023/04/22 08:43:46;;;;;;;21.60;9.40;;;;;;;13.44;56.65;99035.62;108233;1256;96120;-74
2023/04/22 08:46:16;;;;;;;20.20;9.50;;;;;;;13.54;56.71;99038.52;106608;1261;111377;-79
2023/04/22 08:48:47;;;;;;;19.20;8.70;;;;;;;13.65;56.39;99035.48;105584;1262;102241;-77
2023/04/22 08:51:17;;;;;;;22.00;9.60;;;;;;;13.73;56.42;99039.45;105126;1255;107983;-78
2023/04/22 08:53:46;;;;;;;20.10;9.40;;;;;;;13.79;56.53;99033.35;106347;1260;98040;-76
2023/04/22 08:56:14;;;;;;;19.70;8.20;;;;;;;13.84;56.45;99032.76;107212;1258;97961;-75
2023/04/22 08:58:42;;;;;;;19.80;9.00;;;;;;;13.87;56.43;99028.81;108235;1256;111888;-78
2023/04/22 09:01:12;;;;;;;19.00;8.50;;;;;;;13.86;56.36;99027.27;108316;1256;102205;-80
2023/04/22 09:03:41;;;;;;;19.00;8.40;;;;;;;13.87;56.37;99028.57;108371;1256;107926;-77
2023/04/22 09:06:10;;;;;;;20.00;8.50;;;;;;;13.93;56.44;99027.30;108212;1256;95744;-77
2023/04/22 09:08:39;;;;;;;19.80;8.80;;;;;;;14.02;56.09;99024.98;108212;1256;96017;-78
2023/04/22 09:11:07;;;;;;;19.10;8.10;;;;;;;14.10;56.07;99025.84;108174;1256;111233;-78
2023/04/22 09:13:35;;;;;;;18.30;7.90;;;;;;;14.19;56.13;99025.80;108331;1260;102234;-80
2023/04/22 09:16:03;;;;;;;19.10;7.50;;;;;;;14.32;56.01;99023.42;108349;1257;107739;-77
2023/04/22 09:18:39;;;;;;;18.00;7.30;;;;;;;14.42;55.85;99018.92;108277;1260;96854;-77
2023/04/22 09:21:07;;;;;;;19.90;8.40;;;;;;;14.53;56.02;99013.89;108265;1260;95796;-76
2023/04/22 09:23:51;;;;;;;17.40;7.10;;;;;;;14.69;56.06;99017.25;108410;1256;110750;-77
2023/04/22 09:26:24;;;;;;;;;;;;;;;14.88;56.08;99013.81;108332;1256;102733;-77
2023/04/22 09:28:59;;;;;;;15.20;6.30;;;;;;;15.03;55.89;99019.58;106099;1258;108196;-75
2023/04/22 09:31:28;;;;;;;16.70;6.70;;;;;;;15.17;55.53;99014.70;107747;1259;97972;-75
2023/04/22 09:33:57;;;;;;;15.70;6.40;;;;;;;15.33;55.64;99013.92;105039;1259;97970;-74
2023/04/22 09:36:27;;;;;;;18.00;6.90;;;;;;;15.55;55.83;99007.98;105025;1270;111258;-75
2023/04/22 09:38:58;;;;;;;15.10;7.10;;;;;;;15.85;55.86;99005.89;104961;1262;102413;-76
2023/04/22 09:41:38;;;;;;;19.10;7.10;;;;;;;16.04;55.48;98998.36;105017;1262;107190;-76
2023/04/22 09:44:15;;;;;;;15.00;6.00;;;;;;;16.24;55.73;98993.20;104856;1261;97914;-76
2023/04/22 09:46:43;;;;;;;13.20;5.20;;;;;;;16.46;54.94;98992.27;105001;1270;98544;-74
2023/04/22 09:49:15;;;;;;;13.00;5.30;;;;;;;16.59;53.92;98988.55;104957;1260;111046;-75
2023/04/22 09:51:43;;;;;;;8.00;4.30;;;;;;;16.64;53.99;98990.23;104964;1260;102149;-75
2023/04/22 09:54:14;;;;;;;23.70;5.10;;;;;;;16.64;54.44;98986.45;104686;1262;107062;-76
2023/04/22 09:56:52;;;;;;;8.10;3.70;;;;;;;16.67;54.41;98982.25;104837;1267;97996;-75
2023/04/22 09:59:27;;;;;;;9.00;3.90;;;;;;;16.70;54.35;98985.20;104837;1261;99542;-75
2023/04/22 10:01:58;;;;;;;8.50;4.10;;;;;;;16.69;54.10;98982.73;104999;1262;110686;-74
2023/04/22 10:04:27;;;;;;;7.00;3.70;;;;;;;16.68;54.29;98981.98;105273;1261;102896;-73
2023/04/22 10:06:56;;;;;;;8.80;3.70;;;;;;;16.63;54.01;98979.20;106369;1258;107197;-77
2023/04/22 17:56:48;;;;;;;32.90;14.40;;;;;;;13.15;44.04;98887.79;102645;1291;636068;-75
2023/04/22 17:59:16;;;;;;;36.90;16.80;;;;;;;13.02;44.13;98888.39;104668;1269;94444;-74
2023/04/22 18:01:44;;;;;;;37.00;17.30;;;;;;;12.89;44.29;98891.52;105000;1260;94705;-77
2023/04/22 18:04:12;;;;;;;37.10;18.00;;;;;;;12.78;44.41;98894.43;104716;1260;107002;-77
2023/04/22 18:06:41;;;;;;;35.20;17.10;;;;;;;12.66;44.47;98892.40;105070;1262;102198;-78
2023/04/22 18:09:09;;;;;;;36.40;18.90;;;;;;;12.55;44.68;98895.48;105503;1253;107638;-79
2023/04/22 18:11:38;;;;;;;39.00;20.50;;;;;;;12.45;44.69;98893.64;105294;1256;165525;-75
2023/04/22 18:14:06;;;;;;;38.60;20.20;;;;;;;12.34;44.75;98891.67;105816;1256;94372;-79
2023/04/22 18:16:35;;;;;;;39.80;22.10;;;;;;;12.25;44.78;98895.64;105378;1259;106924;-76
2023/04/22 18:19:05;;;;;;;40.10;20.60;;;;;;;12.16;44.94;98899.94;105232;1257;100481;-78
2023/04/22 18:21:33;;;;;;;37.50;18.30;;;;;;;12.07;45.00;98898.52;105521;1264;106729;-77
2023/04/22 18:24:02;;;;;;;32.20;16.40;;;;;;;11.98;45.00;98901.91;105300;1251;95232;-75
2023/04/22 18:26:30;;;;;;;36.20;17.50;;;;;;;11.90;45.18;98904.11;105493;1256;96440;-77
2023/04/22 18:28:58;;;;;;;39.80;17.30;;;;;;;11.82;45.35;98905.46;105493;1255;108501;-74
2023/04/22 18:31:26;;;;;;;33.60;16.80;;;;;;;11.73;45.47;98904.55;105581;1250;102246;-73
2023/04/22 18:33:54;;;;;;;40.20;17.70;;;;;;;11.67;45.47;98904.36;105345;1254;107131;-76
2023/04/22 18:36:22;;;;;;;43.00;20.70;;;;;;;11.60;45.54;98906.11;105769;1258;96172;-74
2023/04/22 18:38:50;;;;;;;48.50;23.90;;;;;;;11.53;45.67;98902.23;105194;1259;96399;-75
2023/04/22 18:41:19;;;;;;;48.60;23.40;;;;;;;11.46;45.75;98905.32;105626;1250;106666;-74
2023/04/22 18:43:47;;;;;;;49.80;23.50;;;;;;;11.38;45.83;98904.67;105944;1251;102183;-74
2023/04/22 18:46:15;;;;;;;45.90;22.40;;;;;;;11.32;45.90;98906.73;105448;1256;107604;-76
2023/04/22 18:48:43;;;;;;;47.40;21.40;;;;;;;11.26;46.05;98908.44;105639;1250;95329;-74
2023/04/22 18:51:12;;;;;;;50.80;22.90;;;;;;;11.19;46.05;98908.29;105703;1253;95441;-73
2023/04/22 18:53:40;;;;;;;38.10;19.90;;;;;;;11.14;46.15;98906.68;105740;1251;107989;-80
2023/04/22 18:56:09;;;;;;;35.90;16.40;;;;;;;11.09;46.08;98910.65;105676;1256;102244;-77
2023/04/22 18:58:40;;;;;;;32.40;18.00;;;;;;;11.05;46.18;98914.32;105765;1256;107559;-77
2023/04/22 19:01:10;;;;;;;31.80;15.90;;;;;;;11.00;46.40;98917.14;107814;1250;95203;-75
2023/04/22 19:03:39;;;;;;;32.60;16.40;;;;;;;10.94;46.66;98914.64;107392;1253;95244;-75
2023/04/22 19:06:07;;;;;;;38.10;18.10;;;;;;;10.88;46.54;98913.63;105240;1253;108757;-75